sensor_id;sensor_type;location;lat;lon;timestamp;pressure;altitude;pressure_sealevel;temperature;humidity
68654;BME280;55636;51.108;13.622;2023-04-08T00:00:48;100683.69;;;5.00;60.97
68654;BME280;55636;51.108;13.622;2023-04-08T00:01:50;100688.09;;;5.01;61.10
68654;BME280;55636;51.108;13.622;2023-04-08T00:02:53;100680.94;;;5.00;61.05
68654;BME280;55636;51.108;13.622;2023-04-08T00:03:56;100682.81;;;5.00;61.17
68654;BME280;55636;51.108;13.622;2023-04-08T00:04:58;100694.63;;;5.00;61.20
68654;BME280;55636;51.108;13.622;2023-04-08T00:06:01;100682.81;;;5.00;61.17
68654;BME280;55636;51.108;13.622;2023-04-08T00:07:07;100688.28;;;5.00;61.31
68654;BME280;55636;51.108;13.622;2023-04-08T00:08:10;100673.56;;;5.01;61.47
68654;BME280;55636;51.108;13.622;2023-04-08T00:09:12;100680.94;;;5.00;61.46
68654;BME280;55636;51.108;13.622;2023-04-08T00:10:14;100681.78;;;5.01;61.63
68654;BME280;55636;51.108;13.622;2023-04-08T00:11:17;100675.47;;;5.00;61.66
68654;BME280;55636;51.108;13.622;2023-04-08T00:12:21;100681.78;;;5.01;61.60
68654;BME280;55636;51.108;13.622;2023-04-08T00:13:25;100679.03;;;5.01;61.51
68654;BME280;55636;51.108;13.622;2023-04-08T00:14:27;100674.41;;;5.01;61.35
68654;BME280;55636;51.108;13.622;2023-04-08T00:15:30;100677.16;;;5.01;61.32
68654;BME280;55636;51.108;13.622;2023-04-08T00:16:32;100676.28;;;5.01;61.38
68654;BME280;55636;51.108;13.622;2023-04-08T00:17:35;100677.16;;;5.01;61.30
68654;BME280;55636;51.108;13.622;2023-04-08T00:18:37;100674.41;;;5.01;61.35
68654;BME280;55636;51.108;13.622;2023-04-08T00:19:40;100682.41;;;5.03;61.55
68654;BME280;55636;51.108;13.622;2023-04-08T00:20:42;100680.50;;;5.03;61.75
68654;BME280;55636;51.108;13.622;2023-04-08T00:21:45;100681.56;;;5.02;61.73
68654;BME280;55636;51.108;13.622;2023-04-08T00:22:48;100687.88;;;5.03;61.82
68654;BME280;55636;51.108;13.622;2023-04-08T00:23:51;100682.41;;;5.03;61.84
68654;BME280;55636;51.108;13.622;2023-04-08T00:24:53;100678.63;;;5.04;61.77
68654;BME280;55636;51.108;13.622;2023-04-08T00:25:56;100683.00;;;5.05;61.75
68654;BME280;55636;51.108;13.622;2023-04-08T00:26:59;100674.81;;;5.05;61.66
68654;BME280;55636;51.108;13.622;2023-04-08T00:28:01;100672.28;;;5.03;61.88
68654;BME280;55636;51.108;13.622;2023-04-08T00:29:04;100679.44;;;5.04;61.90
68654;BME280;55636;51.108;13.622;2023-04-08T00:30:07;100675.88;;;5.04;61.93
68654;BME280;55636;51.108;13.622;2023-04-08T00:31:09;100680.28;;;5.05;61.90
68654;BME280;55636;51.108;13.622;2023-04-08T00:32:13;100674.81;;;5.05;61.83
68654;BME280;55636;51.108;13.622;2023-04-08T00:33:15;100674.81;;;5.05;61.77
68654;BME280;55636;51.108;13.622;2023-04-08T00:34:18;100674.81;;;5.05;61.70
68654;BME280;55636;51.108;13.622;2023-04-08T00:35:23;100679.44;;;5.04;61.72
68654;BME280;55636;51.108;13.622;2023-04-08T00:36:25;100675.66;;;5.05;61.69
68654;BME280;55636;51.108;13.622;2023-04-08T00:37:29;100680.06;;;5.06;61.97
68654;BME280;55636;51.108;13.622;2023-04-08T00:38:32;100675.66;;;5.05;61.86
68654;BME280;55636;51.108;13.622;2023-04-08T00:39:36;100675.44;;;5.07;61.81
68654;BME280;55636;51.108;13.622;2023-04-08T00:40:38;100676.50;;;5.06;61.90
68654;BME280;55636;51.108;13.622;2023-04-08T00:41:41;100678.19;;;5.07;61.83
68654;BME280;55636;51.108;13.622;2023-04-08T00:42:44;100679.88;;;5.08;61.96
68654;BME280;55636;51.108;13.622;2023-04-08T00:43:46;100681.75;;;5.07;62.16
68654;BME280;55636;51.108;13.622;2023-04-08T00:44:49;100680.91;;;5.07;62.19
68654;BME280;55636;51.108;13.622;2023-04-08T00:45:55;100680.91;;;5.07;62.37
68654;BME280;55636;51.108;13.622;2023-04-08T00:46:57;100682.78;;;5.06;62.44
68654;BME280;55636;51.108;13.622;2023-04-08T00:48:02;100683.44;;;5.08;62.16
68654;BME280;55636;51.108;13.622;2023-04-08T00:49:06;100685.34;;;5.08;62.30
68654;BME280;55636;51.108;13.622;2023-04-08T00:50:09;100684.47;;;5.07;62.39
68654;BME280;55636;51.108;13.622;2023-04-08T00:51:14;100675.22;;;5.08;62.40
68654;BME280;55636;51.108;13.622;2023-04-08T00:52:17;100679.88;;;5.08;62.53
68654;BME280;55636;51.108;13.622;2023-04-08T00:53:19;100682.59;;;5.08;62.60
68654;BME280;55636;51.108;13.622;2023-04-08T00:54:23;100687.00;;;5.09;62.50
68654;BME280;55636;51.108;13.622;2023-04-08T00:55:26;100679.63;;;5.10;62.68
68654;BME280;55636;51.108;13.622;2023-04-08T00:56:31;100685.13;;;5.10;62.82
68654;BME280;55636;51.108;13.622;2023-04-08T00:57:34;100685.94;;;5.10;62.69
68654;BME280;55636;51.108;13.622;2023-04-08T00:58:37;100685.94;;;5.10;62.71
68654;BME280;55636;51.108;13.622;2023-04-08T00:59:40;100681.34;;;5.11;62.76
68654;BME280;55636;51.108;13.622;2023-04-08T01:00:49;100681.34;;;5.11;63.00
68654;BME280;55636;51.108;13.622;2023-04-08T01:02:00;100677.72;;;5.10;62.86
68654;BME280;55636;51.108;13.622;2023-04-08T01:06:09;100680.25;;;5.12;62.94
68654;BME280;55636;51.108;13.622;2023-04-08T01:07:19;100682.16;;;5.11;63.00
68654;BME280;55636;51.108;13.622;2023-04-08T01:08:24;100683.00;;;5.12;63.13
68654;BME280;55636;51.108;13.622;2023-04-08T01:09:32;100680.25;;;5.12;63.21
68654;BME280;55636;51.108;13.622;2023-04-08T01:10:39;100679.41;;;5.11;63.32
68654;BME280;55636;51.108;13.622;2023-04-08T01:11:45;100672.03;;;5.12;63.03
68654;BME280;55636;51.108;13.622;2023-04-08T01:12:55;100679.19;;;5.13;63.18
68654;BME280;55636;51.108;13.622;2023-04-08T01:13:58;100677.31;;;5.13;63.14
68654;BME280;55636;51.108;13.622;2023-04-08T01:15:05;100677.31;;;5.13;63.37
68654;BME280;55636;51.108;13.622;2023-04-08T01:16:11;100677.31;;;5.13;63.39
68654;BME280;55636;51.108;13.622;2023-04-08T01:17:15;100673.72;;;5.13;63.36
68654;BME280;55636;51.108;13.622;2023-04-08T01:18:23;100671.84;;;5.13;63.31
68654;BME280;55636;51.108;13.622;2023-04-08T01:19:31;100671.63;;;5.15;63.47
68654;BME280;55636;51.108;13.622;2023-04-08T01:20:36;100674.34;;;5.15;63.33
68654;BME280;55636;51.108;13.622;2023-04-08T01:21:38;100675.41;;;5.14;63.45
68654;BME280;55636;51.108;13.622;2023-04-08T01:24:10;100671.63;;;5.15;63.47
68654;BME280;55636;51.108;13.622;2023-04-08T01:25:22;100668.03;;;5.14;63.68
68654;BME280;55636;51.108;13.622;2023-04-08T01:26:27;100663.41;;;5.15;63.49
68654;BME280;55636;51.108;13.622;2023-04-08T01:27:31;100667.81;;;5.16;63.58
68654;BME280;55636;51.108;13.622;2023-04-08T01:28:35;100666.97;;;5.15;63.54
68654;BME280;55636;51.108;13.622;2023-04-08T01:29:39;100670.56;;;5.16;63.69
68654;BME280;55636;51.108;13.622;2023-04-08T01:30:43;100672.22;;;5.17;63.57
68654;BME280;55636;51.108;13.622;2023-04-08T01:31:47;100671.41;;;5.16;63.45
68654;BME280;55636;51.108;13.622;2023-04-08T01:32:53;100665.91;;;5.16;63.71
68654;BME280;55636;51.108;13.622;2023-04-08T01:33:56;100667.59;;;5.17;63.72
68654;BME280;55636;51.108;13.622;2023-04-08T01:35:01;100663.19;;;5.16;63.91
68654;BME280;55636;51.108;13.622;2023-04-08T01:36:05;100669.28;;;5.18;63.82
68654;BME280;55636;51.108;13.622;2023-04-08T01:37:12;100669.50;;;5.17;63.89
68654;BME280;55636;51.108;13.622;2023-04-08T01:38:18;100667.59;;;5.17;64.13
68654;BME280;55636;51.108;13.622;2023-04-08T01:39:22;100667.59;;;5.17;63.84
68654;BME280;55636;51.108;13.622;2023-04-08T01:40:25;100668.44;;;5.18;63.90
68654;BME280;55636;51.108;13.622;2023-04-08T01:41:29;100669.28;;;5.18;64.09
68654;BME280;55636;51.108;13.622;2023-04-08T01:42:32;100663.81;;;5.18;64.03
68654;BME280;55636;51.108;13.622;2023-04-08T01:43:35;100670.13;;;5.19;63.90
68654;BME280;55636;51.108;13.622;2023-04-08T01:44:41;100670.13;;;5.19;64.05
68654;BME280;55636;51.108;13.622;2023-04-08T01:45:46;100668.22;;;5.19;64.04
68654;BME280;55636;51.108;13.622;2023-04-08T01:46:49;100668.22;;;5.19;64.11
68654;BME280;55636;51.108;13.622;2023-04-08T01:47:55;100670.75;;;5.21;64.12
68654;BME280;55636;51.108;13.622;2023-04-08T01:48:59;100677.06;;;5.21;63.95
68654;BME280;55636;51.108;13.622;2023-04-08T01:50:04;100669.06;;;5.20;64.10
68654;BME280;55636;51.108;13.622;2023-04-08T01:51:08;100671.59;;;5.21;64.14
68654;BME280;55636;51.108;13.622;2023-04-08T01:52:11;100677.88;;;5.22;64.20
68654;BME280;55636;51.108;13.622;2023-04-08T01:53:14;100668.84;;;5.21;64.20
68654;BME280;55636;51.108;13.622;2023-04-08T01:54:16;100677.88;;;5.22;64.14
68654;BME280;55636;51.108;13.622;2023-04-08T01:55:19;100674.09;;;5.23;63.88
68654;BME280;55636;51.108;13.622;2023-04-08T01:56:22;100667.78;;;5.22;63.84
68654;BME280;55636;51.108;13.622;2023-04-08T01:57:29;100668.63;;;5.23;64.15
68654;BME280;55636;51.108;13.622;2023-04-08T01:58:51;100669.47;;;5.23;64.16
68654;BME280;55636;51.108;13.622;2023-04-08T01:59:59;100672.22;;;5.23;64.38
68654;BME280;55636;51.108;13.622;2023-04-08T02:01:04;100672.22;;;5.23;64.32
68654;BME280;55636;51.108;13.622;2023-04-08T02:02:08;100674.53;;;5.27;64.31
68654;BME280;55636;51.108;13.622;2023-04-08T02:03:11;100668.41;;;5.24;64.38
68654;BME280;55636;51.108;13.622;2023-04-08T02:04:14;100669.47;;;5.23;64.46
68654;BME280;55636;51.108;13.622;2023-04-08T02:05:19;100672.84;;;5.26;64.41
68654;BME280;55636;51.108;13.622;2023-04-08T02:06:24;100675.78;;;5.24;64.60
68654;BME280;55636;51.108;13.622;2023-04-08T02:07:29;100677.47;;;5.25;64.66
68654;BME280;55636;51.108;13.622;2023-04-08T02:08:33;100673.72;;;5.26;64.73
68654;BME280;55636;51.108;13.622;2023-04-08T02:09:36;100667.56;;;5.24;64.67
68654;BME280;55636;51.108;13.622;2023-04-08T02:10:41;100674.97;;;5.23;64.63
68654;BME280;55636;51.108;13.622;2023-04-08T02:11:43;100676.63;;;5.24;64.60
68654;BME280;55636;51.108;13.622;2023-04-08T02:12:47;100673.88;;;5.24;64.73
68654;BME280;55636;51.108;13.622;2023-04-08T02:13:49;100684.84;;;5.24;64.76
68654;BME280;55636;51.108;13.622;2023-04-08T02:14:53;100677.47;;;5.25;64.80
68654;BME280;55636;51.108;13.622;2023-04-08T02:16:21;100683.81;;;5.26;64.92
68654;BME280;55636;51.108;13.622;2023-04-08T02:17:33;100684.69;;;5.26;64.90
68654;BME280;55636;51.108;13.622;2023-04-08T02:18:38;100682.75;;;5.27;64.82
68654;BME280;55636;51.108;13.622;2023-04-08T02:21:15;100679.34;;;5.24;65.00
68654;BME280;55636;51.108;13.622;2023-04-08T02:22:37;100680.22;;;5.25;65.04
68654;BME280;55636;51.108;13.622;2023-04-08T02:23:41;100686.56;;;5.26;64.92
68654;BME280;55636;51.108;13.622;2023-04-08T02:24:48;100678.53;;;5.24;65.04
68654;BME280;55636;51.108;13.622;2023-04-08T02:25:54;100677.47;;;5.25;65.15
68654;BME280;55636;51.108;13.622;2023-04-08T02:27:02;100679.34;;;5.24;64.96
68654;BME280;55636;51.108;13.622;2023-04-08T02:28:08;100676.63;;;5.24;64.95
68654;BME280;55636;51.108;13.622;2023-04-08T02:29:14;100684.69;;;5.26;64.98
68654;BME280;55636;51.108;13.622;2023-04-08T02:30:20;100684.69;;;5.26;65.06
68654;BME280;55636;51.108;13.622;2023-04-08T02:31:23;100679.19;;;5.26;65.03
68654;BME280;55636;51.108;13.622;2023-04-08T02:32:27;100681.94;;;5.26;65.03
68654;BME280;55636;51.108;13.622;2023-04-08T02:33:33;100681.06;;;5.26;65.26
68654;BME280;55636;51.108;13.622;2023-04-08T02:34:39;100677.47;;;5.25;65.26
68654;BME280;55636;51.108;13.622;2023-04-08T02:35:43;100674.75;;;5.25;65.23
68654;BME280;55636;51.108;13.622;2023-04-08T02:36:47;100682.09;;;5.24;65.34
68654;BME280;55636;51.108;13.622;2023-04-08T02:37:51;100684.84;;;5.24;65.26
68654;BME280;55636;51.108;13.622;2023-04-08T02:38:53;100684.84;;;5.24;65.39
68654;BME280;55636;51.108;13.622;2023-04-08T02:39:56;100686.56;;;5.26;65.33
68654;BME280;55636;51.108;13.622;2023-04-08T02:40:58;100686.56;;;5.26;65.41
68654;BME280;55636;51.108;13.622;2023-04-08T02:42:03;100690.16;;;5.26;65.28
68654;BME280;55636;51.108;13.622;2023-04-08T02:43:11;100687.56;;;5.24;65.28
68654;BME280;55636;51.108;13.622;2023-04-08T02:44:13;100675.59;;;5.26;65.38
68654;BME280;55636;51.108;13.622;2023-04-08T02:45:16;100681.94;;;5.26;65.55
68654;BME280;55636;51.108;13.622;2023-04-08T02:46:21;100681.94;;;5.26;65.55
68654;BME280;55636;51.108;13.622;2023-04-08T02:47:25;100674.53;;;5.27;65.41
68654;BME280;55636;51.108;13.622;2023-04-08T02:48:27;100681.94;;;5.26;65.40
68654;BME280;55636;51.108;13.622;2023-04-08T02:49:30;100685.50;;;5.27;65.42
68654;BME280;55636;51.108;13.622;2023-04-08T02:50:32;100689.06;;;5.27;65.45
68654;BME280;55636;51.108;13.622;2023-04-08T02:51:34;100688.25;;;5.27;65.45
68654;BME280;55636;51.108;13.622;2023-04-08T02:52:37;100689.06;;;5.27;65.61
68654;BME280;55636;51.108;13.622;2023-04-08T02:53:39;100694.56;;;5.27;65.55
68654;BME280;55636;51.108;13.622;2023-04-08T02:54:42;100688.25;;;5.27;65.66
68654;BME280;55636;51.108;13.622;2023-04-08T02:55:45;100692.03;;;5.26;65.67
68654;BME280;55636;51.108;13.622;2023-04-08T02:56:48;100693.72;;;5.27;65.69
68654;BME280;55636;51.108;13.622;2023-04-08T02:57:50;100693.72;;;5.27;65.70
68654;BME280;55636;51.108;13.622;2023-04-08T02:59:00;100698.16;;;5.28;65.74
68654;BME280;55636;51.108;13.622;2023-04-08T03:00:03;100691.81;;;5.27;65.71
68654;BME280;55636;51.108;13.622;2023-04-08T03:01:07;100697.09;;;5.29;65.64
68654;BME280;55636;51.108;13.622;2023-04-08T03:02:15;100698.97;;;5.28;65.64
68654;BME280;55636;51.108;13.622;2023-04-08T03:03:19;100692.66;;;5.28;65.68
68654;BME280;55636;51.108;13.622;2023-04-08T03:04:29;100694.56;;;5.27;65.71
68654;BME280;55636;51.108;13.622;2023-04-08T03:05:32;100695.41;;;5.28;65.63
68654;BME280;55636;51.108;13.622;2023-04-08T03:06:34;100696.25;;;5.28;65.52
68654;BME280;55636;51.108;13.622;2023-04-08T03:07:37;100694.56;;;5.27;65.74
68654;BME280;55636;51.108;13.622;2023-04-08T03:08:41;100700.88;;;5.28;65.77
68654;BME280;55636;51.108;13.622;2023-04-08T03:09:44;100700.03;;;5.27;65.80
68654;BME280;55636;51.108;13.622;2023-04-08T03:10:47;100697.94;;;5.29;65.82
68654;BME280;55636;51.108;13.622;2023-04-08T03:11:50;100695.41;;;5.28;65.82
68654;BME280;55636;51.108;13.622;2023-04-08T03:12:55;100696.25;;;5.28;65.83
68654;BME280;55636;51.108;13.622;2023-04-08T03:13:58;100703.41;;;5.29;65.92
68654;BME280;55636;51.108;13.622;2023-04-08T03:15:00;100693.50;;;5.28;65.76
68654;BME280;55636;51.108;13.622;2023-04-08T03:16:04;100698.75;;;5.30;65.75
68654;BME280;55636;51.108;13.622;2023-04-08T03:17:07;100700.44;;;5.31;65.90
68654;BME280;55636;51.108;13.622;2023-04-08T03:18:09;100694.34;;;5.29;65.80
68654;BME280;55636;51.108;13.622;2023-04-08T03:19:12;100691.41;;;5.30;65.88
68654;BME280;55636;51.108;13.622;2023-04-08T03:20:14;100691.19;;;5.32;65.75
68654;BME280;55636;51.108;13.622;2023-04-08T03:21:17;100690.53;;;5.30;65.87
68654;BME280;55636;51.108;13.622;2023-04-08T03:22:19;100697.47;;;5.32;65.80
68654;BME280;55636;51.108;13.622;2023-04-08T03:23:22;100693.69;;;5.33;65.80
68654;BME280;55636;51.108;13.622;2023-04-08T03:24:25;100691.19;;;5.32;65.84
68654;BME280;55636;51.108;13.622;2023-04-08T03:25:27;100696.44;;;5.33;65.95
68654;BME280;55636;51.108;13.622;2023-04-08T03:26:30;100701.09;;;5.33;65.87
68654;BME280;55636;51.108;13.622;2023-04-08T03:27:35;100696.44;;;5.33;66.00
68654;BME280;55636;51.108;13.622;2023-04-08T03:28:38;100693.69;;;5.33;66.00
68654;BME280;55636;51.108;13.622;2023-04-08T03:29:42;100704.44;;;5.35;66.01
68654;BME280;55636;51.108;13.622;2023-04-08T03:30:49;100701.09;;;5.33;66.09
68654;BME280;55636;51.108;13.622;2023-04-08T03:31:52;100700.00;;;5.34;66.00
68654;BME280;55636;51.108;13.622;2023-04-08T03:32:54;100701.91;;;5.33;66.03
68654;BME280;55636;51.108;13.622;2023-04-08T03:33:57;100700.00;;;5.34;66.08
68654;BME280;55636;51.108;13.622;2023-04-08T03:35:00;100700.00;;;5.34;66.28
68654;BME280;55636;51.108;13.622;2023-04-08T03:36:03;100700.84;;;5.34;66.15
68654;BME280;55636;51.108;13.622;2023-04-08T03:37:06;100700.84;;;5.34;66.09
68654;BME280;55636;51.108;13.622;2023-04-08T03:38:08;100699.16;;;5.33;66.16
68654;BME280;55636;51.108;13.622;2023-04-08T03:39:11;100701.69;;;5.35;66.25
68654;BME280;55636;51.108;13.622;2023-04-08T03:40:13;100702.75;;;5.34;66.19
68654;BME280;55636;51.108;13.622;2023-04-08T03:41:16;100700.00;;;5.34;66.30
68654;BME280;55636;51.108;13.622;2023-04-08T03:42:18;100700.00;;;5.34;66.30
68654;BME280;55636;51.108;13.622;2023-04-08T03:43:20;100698.34;;;5.33;66.40
68654;BME280;55636;51.108;13.622;2023-04-08T03:44:24;100697.25;;;5.34;66.35
68654;BME280;55636;51.108;13.622;2023-04-08T03:45:26;100693.69;;;5.33;66.31
68654;BME280;55636;51.108;13.622;2023-04-08T03:46:29;100695.59;;;5.33;66.29
68654;BME280;55636;51.108;13.622;2023-04-08T03:47:33;100702.75;;;5.34;66.38
68654;BME280;55636;51.108;13.622;2023-04-08T03:48:35;100692.84;;;5.33;66.34
68654;BME280;55636;51.108;13.622;2023-04-08T03:49:38;100701.91;;;5.33;66.41
68654;BME280;55636;51.108;13.622;2023-04-08T03:50:40;100700.84;;;5.34;66.37
68654;BME280;55636;51.108;13.622;2023-04-08T03:51:42;100700.84;;;5.34;66.28
68654;BME280;55636;51.108;13.622;2023-04-08T03:52:45;100700.00;;;5.34;66.40
68654;BME280;55636;51.108;13.622;2023-04-08T03:53:47;100702.75;;;5.34;66.40
68654;BME280;55636;51.108;13.622;2023-04-08T03:54:50;100701.69;;;5.35;66.54
68654;BME280;55636;51.108;13.622;2023-04-08T03:55:52;100696.22;;;5.35;66.49
68654;BME280;55636;51.108;13.622;2023-04-08T03:56:55;100704.44;;;5.35;66.50
68654;BME280;55636;51.108;13.622;2023-04-08T03:57:57;100700.00;;;5.34;66.51
68654;BME280;55636;51.108;13.622;2023-04-08T03:59:00;100707.16;;;5.35;66.48
68654;BME280;55636;51.108;13.622;2023-04-08T04:00:02;100702.75;;;5.34;66.58
68654;BME280;55636;51.108;13.622;2023-04-08T04:01:13;100700.00;;;5.34;66.56
68654;BME280;55636;51.108;13.622;2023-04-08T04:02:15;100697.25;;;5.34;66.51
68654;BME280;55636;51.108;13.622;2023-04-08T04:03:20;100700.63;;;5.36;66.52
68654;BME280;55636;51.108;13.622;2023-04-08T04:04:23;100708.84;;;5.36;66.43
68654;BME280;55636;51.108;13.622;2023-04-08T04:05:28;100703.38;;;5.36;66.43
68654;BME280;55636;51.108;13.622;2023-04-08T04:06:31;100706.13;;;5.36;66.59
68654;BME280;55636;51.108;13.622;2023-04-08T04:07:34;100703.38;;;5.36;66.57
68654;BME280;55636;51.108;13.622;2023-04-08T04:08:37;100708.84;;;5.36;66.47
68654;BME280;55636;51.108;13.622;2023-04-08T04:09:40;100709.91;;;5.35;66.66
68654;BME280;55636;51.108;13.622;2023-04-08T04:10:42;100706.13;;;5.36;66.68
68654;BME280;55636;51.108;13.622;2023-04-08T04:11:45;100705.28;;;5.35;66.69
68654;BME280;55636;51.108;13.622;2023-04-08T04:12:49;100701.69;;;5.35;66.74
68654;BME280;55636;51.108;13.622;2023-04-08T04:13:51;100698.72;;;5.36;66.70
68654;BME280;55636;51.108;13.622;2023-04-08T04:14:53;100699.59;;;5.37;66.61
68654;BME280;55636;51.108;13.622;2023-04-08T04:15:56;100703.38;;;5.36;66.69
68654;BME280;55636;51.108;13.622;2023-04-08T04:17:02;100704.19;;;5.36;66.84
68654;BME280;55636;51.108;13.622;2023-04-08T04:18:05;100703.16;;;5.37;66.62
68654;BME280;55636;51.108;13.622;2023-04-08T04:19:07;100710.31;;;5.38;66.72
68654;BME280;55636;51.108;13.622;2023-04-08T04:20:10;100708.63;;;5.37;66.83
68654;BME280;55636;51.108;13.622;2023-04-08T04:21:12;100706.13;;;5.36;66.78
68654;BME280;55636;51.108;13.622;2023-04-08T04:22:15;100711.38;;;5.37;66.75
68654;BME280;55636;51.108;13.622;2023-04-08T04:23:19;100707.81;;;5.37;66.77
68654;BME280;55636;51.108;13.622;2023-04-08T04:24:22;100709.69;;;5.36;66.63
68654;BME280;55636;51.108;13.622;2023-04-08T04:25:24;100715.38;;;5.35;66.74
68654;BME280;55636;51.108;13.622;2023-04-08T04:26:30;100713.50;;;5.35;66.69
68654;BME280;55636;51.108;13.622;2023-04-08T04:27:32;100717.28;;;5.34;66.69
68654;BME280;55636;51.108;13.622;2023-04-08T04:28:34;100719.19;;;5.34;66.67
68654;BME280;55636;51.108;13.622;2023-04-08T04:29:38;100721.91;;;5.34;66.88
68654;BME280;55636;51.108;13.622;2023-04-08T04:30:42;100723.59;;;5.35;66.86
68654;BME280;55636;51.108;13.622;2023-04-08T04:31:44;100719.19;;;5.34;66.90
68654;BME280;55636;51.108;13.622;2023-04-08T04:32:47;100720.03;;;5.34;66.80
68654;BME280;55636;51.108;13.622;2023-04-08T04:33:50;100720.88;;;5.35;66.95
68654;BME280;55636;51.108;13.622;2023-04-08T04:34:52;100721.72;;;5.35;66.94
68654;BME280;55636;51.108;13.622;2023-04-08T04:35:54;100716.44;;;5.34;66.95
68654;BME280;55636;51.108;13.622;2023-04-08T04:36:57;100718.97;;;5.35;66.98
68654;BME280;55636;51.108;13.622;2023-04-08T04:37:59;100719.19;;;5.34;66.92
68654;BME280;55636;51.108;13.622;2023-04-08T04:39:03;100723.59;;;5.35;67.01
68654;BME280;55636;51.108;13.622;2023-04-08T04:40:08;100718.13;;;5.35;66.94
68654;BME280;55636;51.108;13.622;2023-04-08T04:41:10;100725.28;;;5.36;67.04
68654;BME280;55636;51.108;13.622;2023-04-08T04:42:14;100723.59;;;5.35;67.06
68654;BME280;55636;51.108;13.622;2023-04-08T04:43:16;100718.13;;;5.35;67.13
68654;BME280;55636;51.108;13.622;2023-04-08T04:44:19;100718.13;;;5.35;67.06
68654;BME280;55636;51.108;13.622;2023-04-08T04:45:22;100719.81;;;5.36;67.04
68654;BME280;55636;51.108;13.622;2023-04-08T04:46:25;100727.19;;;5.35;67.12
68654;BME280;55636;51.108;13.622;2023-04-08T04:47:27;100729.94;;;5.35;67.16
68654;BME280;55636;51.108;13.622;2023-04-08T04:48:30;100727.81;;;5.37;67.15
68654;BME280;55636;51.108;13.622;2023-04-08T04:49:32;100726.97;;;5.37;67.03
68654;BME280;55636;51.108;13.622;2023-04-08T04:50:34;100725.06;;;5.37;67.04
68654;BME280;55636;51.108;13.622;2023-04-08T04:51:37;100733.28;;;5.37;66.93
68654;BME280;55636;51.108;13.622;2023-04-08T04:52:40;100733.28;;;5.37;66.97
68654;BME280;55636;51.108;13.622;2023-04-08T04:53:43;100728.88;;;5.36;66.97
68654;BME280;55636;51.108;13.622;2023-04-08T04:54:45;100730.31;;;5.39;66.97
68654;BME280;55636;51.108;13.622;2023-04-08T04:55:51;100733.94;;;5.39;67.15
68654;BME280;55636;51.108;13.622;2023-04-08T04:56:53;100731.19;;;5.39;67.12
68654;BME280;55636;51.108;13.622;2023-04-08T04:57:57;100736.66;;;5.39;67.00
68654;BME280;55636;51.108;13.622;2023-04-08T04:58:59;100740.22;;;5.40;67.06
68654;BME280;55636;51.108;13.622;2023-04-08T05:00:01;100737.50;;;5.40;67.02
68654;BME280;55636;51.108;13.622;2023-04-08T05:01:09;100734.75;;;5.40;67.07
68654;BME280;55636;51.108;13.622;2023-04-08T05:02:14;100742.97;;;5.40;67.03
68654;BME280;55636;51.108;13.622;2023-04-08T05:03:23;100745.72;;;5.40;66.84
68654;BME280;55636;51.108;13.622;2023-04-08T05:04:25;100741.91;;;5.41;66.86
68654;BME280;55636;51.108;13.622;2023-04-08T05:05:28;100749.50;;;5.39;67.05
68654;BME280;55636;51.108;13.622;2023-04-08T05:06:30;100744.88;;;5.39;66.98
68654;BME280;55636;51.108;13.622;2023-04-08T05:07:36;100737.72;;;5.38;67.16
68654;BME280;55636;51.108;13.622;2023-04-08T05:08:38;100753.09;;;5.39;67.03
68654;BME280;55636;51.108;13.622;2023-04-08T05:09:41;100738.53;;;5.39;67.12
68654;BME280;55636;51.108;13.622;2023-04-08T05:10:43;100750.59;;;5.38;67.12
68654;BME280;55636;51.108;13.622;2023-04-08T05:11:45;100754.97;;;5.39;67.15
68654;BME280;55636;51.108;13.622;2023-04-08T05:12:48;100746.75;;;5.39;67.16
68654;BME280;55636;51.108;13.622;2023-04-08T05:13:51;100754.97;;;5.39;67.24
68654;BME280;55636;51.108;13.622;2023-04-08T05:14:53;100752.25;;;5.39;67.32
68654;BME280;55636;51.108;13.622;2023-04-08T05:15:58;100755.84;;;5.39;67.40
68654;BME280;55636;51.108;13.622;2023-04-08T05:17:01;100757.72;;;5.39;67.37
68654;BME280;55636;51.108;13.622;2023-04-08T05:18:05;100754.97;;;5.39;67.38
68654;BME280;55636;51.108;13.622;2023-04-08T05:19:09;100756.91;;;5.38;67.34
68654;BME280;55636;51.108;13.622;2023-04-08T05:20:12;100752.25;;;5.39;67.39
68654;BME280;55636;51.108;13.622;2023-04-08T05:21:17;100754.97;;;5.39;67.55
68654;BME280;55636;51.108;13.622;2023-04-08T05:22:19;100757.31;;;5.42;67.27
68654;BME280;55636;51.108;13.622;2023-04-08T05:23:21;100745.50;;;5.41;67.32
68654;BME280;55636;51.108;13.622;2023-04-08T05:24:24;100749.09;;;5.42;67.30
68654;BME280;55636;51.108;13.622;2023-04-08T05:25:26;100745.50;;;5.41;67.40
68654;BME280;55636;51.108;13.622;2023-04-08T05:26:29;100752.66;;;5.43;67.36
68654;BME280;55636;51.108;13.622;2023-04-08T05:27:33;100746.34;;;5.42;67.30
68654;BME280;55636;51.108;13.622;2023-04-08T05:28:38;100748.88;;;5.44;67.37
68654;BME280;55636;51.108;13.622;2023-04-08T05:29:40;100745.31;;;5.43;67.28
68654;BME280;55636;51.108;13.622;2023-04-08T05:30:50;100750.78;;;5.43;67.44
68654;BME280;55636;51.108;13.622;2023-04-08T05:31:53;100752.44;;;5.44;67.24
68654;BME280;55636;51.108;13.622;2023-04-08T05:32:55;100749.69;;;5.44;67.32
68654;BME280;55636;51.108;13.622;2023-04-08T05:34:01;100754.13;;;5.45;67.28
68654;BME280;55636;51.108;13.622;2023-04-08T05:35:05;100754.13;;;5.45;67.30
68654;BME280;55636;51.108;13.622;2023-04-08T05:36:10;100761.28;;;5.46;67.55
68654;BME280;55636;51.108;13.622;2023-04-08T05:37:12;100754.75;;;5.47;67.49
68654;BME280;55636;51.108;13.622;2023-04-08T05:38:14;100757.50;;;5.47;67.50
68654;BME280;55636;51.108;13.622;2023-04-08T05:39:18;100756.66;;;5.47;67.56
68654;BME280;55636;51.108;13.622;2023-04-08T05:40:20;100755.59;;;5.48;67.53